Time;durP1;ratioP1;P1;durP2;ratioP2;P2;SDS_P1;SDS_P2;PMS_P1;PMS_P2;Temp;Humidity;BMP_temperature;BMP_pressure;BME280_temperature;BME280_humidity;BME280_pressure;Samples;Min_cycle;Max_cycle;Signal;HPM_P1;HPM_P2
2023/05/01 00:01:38;;;;;;;9.23;7.30;;;;;;;9.47;100.00;98120.84;4950688;28;20215;-87
2023/05/01 00:04:04;;;;;;;9.60;7.33;;;;;;;9.43;100.00;98113.25;4950681;28;20212;-87
2023/05/01 00:06:33;;;;;;;9.67;7.23;;;;;;;9.47;100.00;98114.72;4950846;29;20287;-87
2023/05/01 00:08:59;;;;;;;8.47;7.57;;;;;;;9.40;100.00;98119.56;4950879;29;20215;-87
2023/05/01 00:11:26;;;;;;;9.83;7.20;;;;;;;9.33;100.00;98106.84;4950665;29;20256;-87
2023/05/01 00:13:53;;;;;;;8.70;6.93;;;;;;;9.30;100.00;98112.34;4950738;29;20217;-87
2023/05/01 00:16:19;;;;;;;8.23;6.90;;;;;;;9.22;100.00;98104.91;4950656;28;20256;-88
2023/05/01 00:18:46;;;;;;;9.10;7.27;;;;;;;9.17;100.00;98100.91;4950091;29;20241;-87
2023/05/01 00:21:12;;;;;;;8.17;7.07;;;;;;;9.13;100.00;98104.66;4950499;28;20211;-87
2023/05/01 00:23:40;;;;;;;8.37;7.47;;;;;;;9.08;100.00;98101.47;4950671;28;20216;-88
2023/05/01 00:26:07;;;;;;;8.83;7.30;;;;;;;9.08;100.00;98098.84;4950684;29;20215;-87
2023/05/01 00:28:33;;;;;;;8.57;7.03;;;;;;;9.07;100.00;98094.50;4950613;28;20229;-87
2023/05/01 00:31:00;;;;;;;8.20;7.40;;;;;;;9.04;100.00;98094.69;4950400;29;20213;-88
2023/05/01 00:33:26;;;;;;;8.07;7.27;;;;;;;9.02;100.00;98091.31;4950470;28;20210;-88
2023/05/01 00:35:54;;;;;;;8.53;7.43;;;;;;;9.01;100.00;98085.19;4950677;29;20237;-88
2023/05/01 00:38:22;;;;;;;9.00;7.30;;;;;;;8.99;100.00;98086.25;4950292;28;20266;-88
2023/05/01 00:40:50;;;;;;;8.43;7.30;;;;;;;9.01;100.00;98089.63;4950201;28;20222;-88
2023/05/01 00:43:17;;;;;;;8.90;8.00;;;;;;;9.00;100.00;98091.41;4950558;28;20269;-88
2023/05/01 00:45:44;;;;;;;8.67;7.33;;;;;;;9.02;100.00;98086.03;4950471;28;20305;-88
2023/05/01 00:48:11;;;;;;;10.03;7.30;;;;;;;8.99;100.00;98080.97;4949659;29;20248;-87
2023/05/01 00:50:38;;;;;;;6.97;6.27;;;;;;;8.97;100.00;98077.56;4949156;28;20211;-88
2023/05/01 00:53:05;;;;;;;8.17;7.33;;;;;;;8.95;100.00;98076.84;4949753;29;20215;-86
2023/05/01 00:55:34;;;;;;;9.97;8.33;;;;;;;8.96;100.00;98073.25;4949913;28;20241;-87
2023/05/01 00:58:03;;;;;;;9.97;8.10;;;;;;;8.96;100.00;98068.84;4949477;28;20783;-87
2023/05/01 01:00:29;;;;;;;9.80;7.57;;;;;;;8.95;100.00;98072.41;4949138;29;20242;-87
2023/05/01 01:02:56;;;;;;;8.27;7.10;;;;;;;8.92;100.00;98063.84;4949649;28;20593;-87
2023/05/01 01:05:27;;;;;;;9.50;7.80;;;;;;;9.00;100.00;98064.22;4949327;29;20695;-87
2023/05/01 01:08:01;;;;;;;9.60;8.40;;;;;;;8.98;100.00;98068.72;4949410;28;20245;-87
2023/05/01 01:10:35;;;;;;;9.53;7.87;;;;;;;9.01;100.00;98066.72;4949240;28;20225;-87
2023/05/01 01:13:11;;;;;;;9.47;7.87;;;;;;;9.02;100.00;98054.41;4949279;29;20217;-87
2023/05/01 01:15:43;;;;;;;9.53;8.23;;;;;;;9.04;100.00;98063.06;4949455;29;20217;-86
2023/05/01 01:18:16;;;;;;;9.67;7.90;;;;;;;9.02;100.00;98054.41;4949098;29;20238;-87
2023/05/01 01:20:49;;;;;;;8.20;7.13;;;;;;;9.04;100.00;98057.78;4948856;29;20238;-87
2023/05/01 01:23:47;;;;;;;10.53;8.07;;;;;;;9.03;100.00;98050.81;4949175;28;20700;-87
2023/05/01 01:26:32;;;;;;;9.63;8.20;;;;;;;9.06;100.00;98053.28;4949113;29;20218;-87
2023/05/01 01:29:37;;;;;;;9.10;7.87;;;;;;;9.02;100.00;98047.34;4948949;28;20678;-79
2023/05/01 01:32:17;;;;;;;8.63;7.17;;;;;;;9.00;100.00;98041.31;4951609;28;20637;-87
2023/05/01 01:34:50;;;;;;;9.70;8.00;;;;;;;9.04;100.00;98041.97;4951855;29;20224;-87
2023/05/01 01:37:21;;;;;;;9.70;7.77;;;;;;;9.02;100.00;98041.22;4951763;28;20261;-87
2023/05/01 01:39:52;;;;;;;8.67;7.53;;;;;;;9.01;100.00;98034.28;4951374;28;20234;-87
2023/05/01 01:42:22;;;;;;;8.87;7.63;;;;;;;9.01;100.00;98042.19;4951845;28;20223;-87
2023/05/01 01:44:52;;;;;;;9.17;7.93;;;;;;;9.01;100.00;98042.19;4951805;28;20218;-87
2023/05/01 01:47:20;;;;;;;9.17;7.80;;;;;;;8.99;100.00;98039.63;4915125;28;1091709;-87
2023/05/01 01:49:51;;;;;;;10.73;8.23;;;;;;;9.02;100.00;98043.88;4952755;28;20351;-87
2023/05/01 01:52:20;;;;;;;8.97;7.80;;;;;;;9.00;100.00;98037.84;4952997;28;20215;-87
2023/05/01 01:54:51;;;;;;;10.10;7.70;;;;;;;8.99;100.00;98036.16;4953079;29;20265;-87
2023/05/01 01:57:19;;;;;;;10.70;7.83;;;;;;;8.98;100.00;98037.94;4953095;29;20662;-87
2023/05/01 01:59:47;;;;;;;9.30;7.93;;;;;;;9.03;100.00;98035.88;4952530;28;20238;-87
2023/05/01 02:02:17;;;;;;;9.77;7.73;;;;;;;9.05;100.00;98027.88;4952800;28;20219;-87
2023/05/01 02:04:45;;;;;;;10.07;7.97;;;;;;;9.02;100.00;98028.03;4952618;28;20216;-87
2023/05/01 02:07:14;;;;;;;10.47;8.43;;;;;;;9.04;100.00;98031.41;4952504;28;20240;-87
2023/05/01 02:09:43;;;;;;;10.00;8.10;;;;;;;9.02;100.00;98025.41;4952334;29;20210;-88
2023/05/01 02:12:11;;;;;;;9.77;8.17;;;;;;;9.06;100.00;98022.47;4952398;28;20650;-87
2023/05/01 02:14:39;;;;;;;10.30;8.50;;;;;;;9.09;100.00;98016.16;4952654;28;20210;-79
2023/05/01 02:17:06;;;;;;;10.30;8.00;;;;;;;9.18;100.00;98020.84;4952511;28;20238;-88
2023/05/01 02:19:34;;;;;;;9.67;8.40;;;;;;;9.16;100.00;98010.38;4951943;29;20273;-88
2023/05/01 02:22:02;;;;;;;12.60;8.30;;;;;;;9.17;100.00;98011.25;4952585;29;20219;-87
2023/05/01 02:24:31;;;;;;;10.80;8.87;;;;;;;9.19;100.00;98009.34;4952466;29;20213;-87
2023/05/01 02:27:05;;;;;;;13.87;8.30;;;;;;;9.22;100.00;98003.84;4952211;29;20291;-87
2023/05/01 02:29:32;;;;;;;9.47;7.83;;;;;;;9.21;100.00;98004.81;4952043;28;20212;-87
2023/05/01 02:31:59;;;;;;;12.00;8.60;;;;;;;9.31;100.00;98000.63;4952517;29;20218;-87
2023/05/01 02:34:26;;;;;;;11.20;8.63;;;;;;;9.30;100.00;98004.22;4951610;28;20210;-87
2023/05/01 02:36:53;;;;;;;10.63;8.20;;;;;;;9.39;100.00;98001.81;4951903;28;20351;-87
2023/05/01 02:39:20;;;;;;;8.50;7.57;;;;;;;9.42;100.00;97991.03;4952040;28;20312;-87
2023/05/01 02:41:49;;;;;;;8.53;7.43;;;;;;;9.47;100.00;97978.41;4951885;28;20215;-87
2023/05/01 02:44:16;;;;;;;9.83;7.63;;;;;;;9.49;100.00;97976.50;4952178;28;20225;-87
2023/05/01 02:46:47;;;;;;;26.70;10.93;;;;;;;9.48;100.00;97977.44;4967848;22;20232;-82
2023/05/01 02:49:16;;;;;;;8.67;7.30;;;;;;;9.48;100.00;97980.09;4970843;28;20215;-81
2023/05/01 02:51:43;;;;;;;8.67;7.73;;;;;;;9.46;100.00;97975.84;4972029;28;20225;-82
2023/05/01 02:54:11;;;;;;;8.30;7.37;;;;;;;9.46;100.00;97971.44;4971660;28;20574;-80
2023/05/01 02:56:37;;;;;;;7.97;6.57;;;;;;;9.52;100.00;97972.81;4971514;28;20221;-81
2023/05/01 02:59:05;;;;;;;8.17;7.23;;;;;;;9.48;100.00;97973.97;4971222;28;20207;-81
2023/05/01 03:01:32;;;;;;;7.60;6.87;;;;;;;9.46;100.00;97970.59;4971085;28;20738;-80
2023/05/01 03:03:59;;;;;;;8.53;7.13;;;;;;;9.43;100.00;97976.06;4971125;28;20725;-80
2023/05/01 03:06:27;;;;;;;8.50;7.17;;;;;;;9.48;100.00;97973.97;4971189;28;20218;-81
2023/05/01 03:08:54;;;;;;;8.23;6.57;;;;;;;9.46;100.00;97973.22;4971084;28;20224;-80
2023/05/01 03:11:21;;;;;;;8.83;6.97;;;;;;;9.44;100.00;97977.75;4970804;28;20218;-80
2023/05/01 03:13:47;;;;;;;8.80;7.20;;;;;;;9.43;100.00;97978.72;4970945;28;20237;-81
2023/05/01 03:16:15;;;;;;;7.60;6.57;;;;;;;9.39;100.00;97986.00;4970974;28;20571;-81
2023/05/01 03:18:42;;;;;;;8.80;7.87;;;;;;;9.38;100.00;97983.44;4970947;28;20281;-81
2023/05/01 03:21:09;;;;;;;8.00;6.70;;;;;;;9.36;100.00;97980.06;4970486;28;20267;-81
2023/05/01 03:23:37;;;;;;;7.63;6.83;;;;;;;9.35;100.00;97981.84;4971020;28;20222;-81
2023/05/01 03:26:03;;;;;;;7.83;6.77;;;;;;;9.35;100.00;97978.34;4970722;28;20210;-82
2023/05/01 03:28:30;;;;;;;8.90;6.93;;;;;;;9.34;100.00;97982.81;4970800;28;20247;-82
2023/05/01 03:30:56;;;;;;;7.60;6.77;;;;;;;9.40;100.00;97978.91;4970444;28;20212;-81
2023/05/01 03:33:25;;;;;;;8.27;7.10;;;;;;;9.45;100.00;97974.16;4970774;28;20708;-80
2023/05/01 03:35:59;;;;;;;11.47;8.00;;;;;;;9.49;100.00;97970.38;4970702;28;20217;-80
2023/05/01 03:38:26;;;;;;;8.97;7.23;;;;;;;9.58;100.00;97964.47;4970748;28;20290;-81
2023/05/01 03:40:52;;;;;;;10.73;7.03;;;;;;;9.66;100.00;97962.19;4970123;28;20304;-81
2023/05/01 03:43:19;;;;;;;8.93;7.20;;;;;;;9.60;100.00;97954.69;4970710;28;20323;-81
2023/05/01 03:45:45;;;;;;;10.80;7.80;;;;;;;9.49;100.00;97950.13;4970694;28;20220;-81
2023/05/01 03:48:12;;;;;;;8.50;7.43;;;;;;;9.37;100.00;97950.13;4970561;28;20246;-81
2023/05/01 03:50:40;;;;;;;9.07;8.03;;;;;;;9.36;100.00;97951.88;4970398;28;20210;-81
2023/05/01 03:53:06;;;;;;;8.87;7.53;;;;;;;9.33;100.00;97953.88;4969658;28;20571;-80
2023/05/01 03:55:33;;;;;;;10.33;7.60;;;;;;;9.27;100.00;97955.16;4970287;28;20214;-80
2023/05/01 03:58:00;;;;;;;8.50;7.17;;;;;;;9.31;100.00;97955.78;4970362;28;20289;-81
2023/05/01 04:00:27;;;;;;;9.17;7.13;;;;;;;9.31;100.00;97959.25;4970142;28;20241;-80
2023/05/01 04:02:55;;;;;;;8.77;7.20;;;;;;;9.32;100.00;97952.22;4970339;28;20215;-81
2023/05/01 04:05:21;;;;;;;8.07;6.90;;;;;;;9.34;100.00;97951.16;4970383;28;20247;-80
2023/05/01 04:07:49;;;;;;;8.30;7.37;;;;;;;9.39;100.00;97953.47;4970083;28;20249;-81
2023/05/01 04:10:16;;;;;;;7.00;6.30;;;;;;;9.36;100.00;97948.44;4969870;28;20843;-81
2023/05/01 04:12:43;;;;;;;7.47;6.47;;;;;;;9.38;100.00;97954.44;4970225;28;20227;-81
2023/05/01 04:15:10;;;;;;;8.07;6.90;;;;;;;9.38;100.00;97947.38;4970502;28;20217;-80
2023/05/01 04:17:37;;;;;;;10.53;7.80;;;;;;;9.44;100.00;97939.06;4970123;28;20227;-81
2023/05/01 04:20:05;;;;;;;7.47;6.67;;;;;;;9.42;100.00;97945.38;4969799;28;20575;-81
2023/05/01 04:22:31;;;;;;;9.30;6.70;;;;;;;9.39;100.00;97953.47;4970136;28;20212;-81
2023/05/01 04:24:59;;;;;;;7.03;6.23;;;;;;;9.38;100.00;97951.78;4970220;28;20210;-82
2023/05/01 04:27:26;;;;;;;7.73;6.57;;;;;;;9.36;100.00;97948.44;4970842;28;20233;-81
2023/05/01 04:29:52;;;;;;;8.23;6.10;;;;;;;9.35;100.00;97952.84;4972824;28;20222;-80
2023/05/01 04:32:19;;;;;;;7.60;6.57;;;;;;;9.33;100.00;97949.47;4971860;28;20229;-80
2023/05/01 04:34:45;;;;;;;6.47;5.77;;;;;;;9.32;100.00;97952.22;4971466;28;20213;-81
2023/05/01 04:37:13;;;;;;;8.63;7.00;;;;;;;9.31;100.00;97955.78;4971576;28;20233;-81
2023/05/01 04:39:40;;;;;;;8.60;6.97;;;;;;;9.30;100.00;97954.94;4970000;28;20379;-82
2023/05/01 04:42:07;;;;;;;7.33;6.63;;;;;;;9.33;100.00;97959.16;4970032;28;20218;-82
2023/05/01 04:44:37;;;;;;;8.73;6.93;;;;;;;9.37;100.00;97958.03;4969755;28;20214;-80
2023/05/01 04:47:04;;;;;;;8.33;7.23;;;;;;;9.43;100.00;97960.25;4969544;28;20243;-81
2023/05/01 04:49:31;;;;;;;7.83;7.03;;;;;;;9.48;100.00;97953.72;4969476;28;20215;-80
2023/05/01 04:51:57;;;;;;;8.57;7.03;;;;;;;9.52;100.00;97938.50;4969952;28;20210;-81
2023/05/01 04:54:24;;;;;;;7.80;6.70;;;;;;;9.54;100.00;97947.19;4969628;28;20225;-81
2023/05/01 04:56:51;;;;;;;8.50;7.23;;;;;;;9.55;100.00;97951.50;4969766;28;20333;-81
2023/05/01 04:59:19;;;;;;;7.63;6.93;;;;;;;9.58;100.00;97944.22;4969441;28;20224;-80
2023/05/01 05:01:45;;;;;;;8.70;7.13;;;;;;;9.67;100.00;97953.31;4969473;28;20249;-81
2023/05/01 05:04:11;;;;;;;7.67;6.87;;;;;;;9.66;100.00;97949.00;4969820;28;20220;-81
2023/05/01 05:06:38;;;;;;;9.13;6.87;;;;;;;9.63;100.00;97955.31;4973011;28;20208;-81
2023/05/01 05:09:05;;;;;;;8.47;6.87;;;;;;;9.60;100.00;97952.88;4973124;28;20239;-81
2023/05/01 05:11:31;;;;;;;9.03;7.27;;;;;;;9.62;100.00;97955.41;4972944;28;20682;-81
2023/05/01 05:13:58;;;;;;;7.90;7.03;;;;;;;9.63;100.00;97957.09;4972967;28;20304;-81
2023/05/01 05:16:25;;;;;;;7.43;6.63;;;;;;;9.63;100.00;97957.09;4972688;28;20224;-81
2023/05/01 05:18:52;;;;;;;7.73;6.87;;;;;;;9.66;100.00;97964.81;4972700;28;20212;-81
2023/05/01 05:21:18;;;;;;;8.57;6.60;;;;;;;9.70;100.00;97964.50;4972361;28;20266;-81
2023/05/01 05:23:45;;;;;;;9.93;7.17;;;;;;;9.74;100.00;97954.59;4972918;28;20212;-81
2023/05/01 05:26:11;;;;;;;7.07;6.37;;;;;;;9.79;100.00;97952.47;4972852;28;20221;-81
2023/05/01 05:28:39;;;;;;;7.63;6.67;;;;;;;9.84;100.00;97956.47;4972758;28;20236;-81
2023/05/01 05:31:06;;;;;;;7.83;6.87;;;;;;;9.89;100.00;97954.38;4972179;28;20211;-81
2023/05/01 05:33:33;;;;;;;8.17;7.30;;;;;;;9.91;100.00;97952.47;4972793;28;20207;-81
2023/05/01 05:36:00;;;;;;;8.00;7.17;;;;;;;9.94;100.00;97949.63;4972468;28;20581;-81
2023/05/01 05:38:27;;;;;;;7.93;6.77;;;;;;;9.95;100.00;97951.31;4972567;28;20244;-80
2023/05/01 05:40:54;;;;;;;8.80;7.63;;;;;;;9.96;100.00;97944.22;4972071;28;20742;-81
2023/05/01 05:43:20;;;;;;;8.70;7.63;;;;;;;10.07;100.00;97946.97;4972463;28;20212;-81
2023/05/01 05:45:47;;;;;;;7.90;6.87;;;;;;;9.98;100.00;97943.16;4972248;28;20228;-81
2023/05/01 05:48:13;;;;;;;6.90;6.20;;;;;;;10.01;100.00;97942.09;4972281;28;20249;-81
2023/05/01 05:50:41;;;;;;;7.77;6.53;;;;;;;10.00;100.00;97941.28;4972090;28;20688;-81
2023/05/01 05:53:08;;;;;;;7.47;6.50;;;;;;;9.98;100.00;97943.16;4972494;28;20209;-81
2023/05/01 05:55:35;;;;;;;8.10;6.53;;;;;;;9.96;100.00;97949.50;4972519;28;20235;-80
2023/05/01 05:58:01;;;;;;;7.17;6.37;;;;;;;9.96;100.00;97950.34;4972561;28;20234;-81
2023/05/01 06:00:28;;;;;;;6.93;6.17;;;;;;;9.96;100.00;97955.63;4982205;28;20235;-80
2023/05/01 06:02:55;;;;;;;7.87;7.07;;;;;;;9.94;100.00;97957.53;4995051;28;20200;-80
2023/05/01 06:05:22;;;;;;;8.27;6.93;;;;;;;9.95;100.00;97963.66;4994553;28;20213;-80
2023/05/01 06:07:50;;;;;;;6.77;5.87;;;;;;;9.97;100.00;97962.59;4979659;28;20644;-81
2023/05/01 06:10:16;;;;;;;7.77;6.53;;;;;;;9.99;100.00;97965.13;4972800;28;20225;-81
2023/05/01 06:12:43;;;;;;;7.00;6.30;;;;;;;10.00;100.00;97959.75;4973296;28;20216;-81
2023/05/01 06:15:10;;;;;;;7.63;6.77;;;;;;;10.00;100.00;97961.53;4972601;28;20211;-81
2023/05/01 06:17:37;;;;;;;6.70;6.00;;;;;;;10.00;100.00;97956.25;4971392;28;20228;-82
2023/05/01 06:20:05;;;;;;;6.97;6.27;;;;;;;9.98;100.00;97955.53;4971827;28;20214;-81
2023/05/01 06:22:31;;;;;;;7.93;6.60;;;;;;;9.99;100.00;97957.22;4971744;28;20326;-81
2023/05/01 06:24:59;;;;;;;8.00;6.83;;;;;;;10.01;100.00;97950.00;4971884;28;20211;-82
2023/05/01 06:27:26;;;;;;;8.40;7.20;;;;;;;10.02;100.00;97955.19;4971781;28;20234;-81
2023/05/01 06:29:52;;;;;;;7.53;6.73;;;;;;;10.05;100.00;97948.91;4971906;28;20239;-81
2023/05/01 06:32:19;;;;;;;7.50;6.50;;;;;;;10.09;100.00;97956.50;4971564;28;20208;-82
2023/05/01 06:34:45;;;;;;;7.47;6.77;;;;;;;10.14;100.00;97958.78;4971735;28;20218;-81
2023/05/01 06:37:12;;;;;;;7.43;6.73;;;;;;;10.20;100.00;97961.00;4971635;28;20232;-80
2023/05/01 06:39:38;;;;;;;7.63;6.50;;;;;;;10.27;100.00;97964.94;4971314;28;20212;-79
2023/05/01 06:42:06;;;;;;;8.00;6.83;;;;;;;10.31;100.00;97958.47;4971481;28;20280;-79
2023/05/01 06:44:33;;;;;;;7.17;6.47;;;;;;;10.35;100.00;97963.41;4971700;28;20208;-77
2023/05/01 06:47:00;;;;;;;8.87;6.87;;;;;;;10.43;100.00;97961.09;4971263;28;20259;-79
2023/05/01 06:49:27;;;;;;;8.90;6.47;;;;;;;10.57;100.00;97962.72;4971226;28;20742;-78
2023/05/01 06:51:53;;;;;;;7.73;6.93;;;;;;;10.62;100.00;97956.16;4971315;28;20608;-78
2023/05/01 06:54:19;;;;;;;7.00;6.30;;;;;;;10.74;100.00;97970.28;4971370;28;20325;-78
2023/05/01 06:56:46;;;;;;;7.60;6.67;;;;;;;10.81;100.00;97971.53;4971137;28;20344;-78
2023/05/01 06:59:14;;;;;;;7.63;6.67;;;;;;;10.85;100.00;97973.88;4971258;28;20211;-79
2023/05/01 07:01:40;;;;;;;7.17;6.47;;;;;;;10.91;100.00;97972.56;4971201;28;20253;-78
2023/05/01 07:04:07;;;;;;;6.77;6.07;;;;;;;10.95;100.00;97974.03;4971388;28;20340;-80
2023/05/01 07:06:34;;;;;;;7.17;6.37;;;;;;;11.02;100.00;97980.56;4970939;28;20221;-80
2023/05/01 07:09:00;;;;;;;8.03;7.03;;;;;;;11.16;100.00;97975.94;4971013;28;20215;-79
2023/05/01 07:11:27;;;;;;;8.40;6.50;;;;;;;11.23;100.00;97984.25;4970719;28;20206;-79
2023/05/01 07:13:54;;;;;;;9.00;7.37;;;;;;;11.28;100.00;97982.13;4970936;28;20222;-78
2023/05/01 07:16:22;;;;;;;7.23;6.27;;;;;;;11.28;100.00;97984.75;4971170;28;20304;-79
2023/05/01 07:18:48;;;;;;;7.67;6.83;;;;;;;11.31;100.00;97976.63;4970930;28;20237;-85
2023/05/01 07:21:15;;;;;;;9.63;6.63;;;;;;;11.29;100.00;97979.38;4970626;28;20608;-76
2023/05/01 07:23:41;;;;;;;7.80;7.00;;;;;;;11.27;100.00;97980.44;4970728;28;20210;-78
2023/05/01 07:26:08;;;;;;;8.60;7.33;;;;;;;11.29;100.00;97981.16;4971049;28;20212;-78
2023/05/01 07:28:34;;;;;;;7.57;6.87;;;;;;;11.27;100.00;97980.44;4969755;28;20228;-81
2023/05/01 07:31:01;;;;;;;7.67;6.73;;;;;;;11.30;100.00;97980.19;4970740;28;20591;-78
2023/05/01 07:33:30;;;;;;;7.67;6.73;;;;;;;11.30;100.00;97974.91;4970750;28;20661;-78
2023/05/01 07:35:57;;;;;;;8.50;7.40;;;;;;;11.34;100.00;97982.53;4970682;28;20219;-77
2023/05/01 07:38:23;;;;;;;7.53;6.73;;;;;;;11.41;100.00;97973.16;4970539;28;20577;-78
2023/05/01 07:40:52;;;;;;;9.47;7.30;;;;;;;11.48;100.00;97973.53;4969785;28;20222;-76
2023/05/01 07:43:19;;;;;;;7.77;7.03;;;;;;;11.57;100.00;97978.13;4969277;28;20203;-81
2023/05/01 07:45:56;;;;;;;8.33;7.53;;;;;;;11.62;100.00;97970.72;4970475;28;20220;-81
2023/05/01 07:48:22;;;;;;;9.33;7.93;;;;;;;11.65;100.00;97973.13;4969733;28;20288;-80
2023/05/01 07:50:56;;;;;;;8.90;8.00;;;;;;;11.67;100.00;97974.72;5088297;28;20563;-82
2023/05/01 07:53:23;;;;;;;8.33;7.43;;;;;;;11.76;100.00;97973.16;5088749;28;20216;-82
2023/05/01 07:55:50;;;;;;;8.87;7.93;;;;;;;11.89;100.00;97973.91;5088838;28;20209;-77
2023/05/01 07:58:17;;;;;;;10.67;8.03;;;;;;;11.95;100.00;97966.34;5088541;28;20235;-76
2023/05/01 08:00:44;;;;;;;7.97;6.67;;;;;;;12.09;100.00;97968.75;5088471;28;20276;-79
2023/05/01 08:03:12;;;;;;;8.40;7.50;;;;;;;12.23;100.00;97973.81;5088415;28;20207;-79
2023/05/01 08:05:40;;;;;;;8.63;7.50;;;;;;;12.35;100.00;97966.72;5088559;28;20211;-78
2023/05/01 08:08:08;;;;;;;7.57;6.87;;;;;;;12.50;100.00;97966.38;5088759;28;20229;-79
2023/05/01 08:10:34;;;;;;;8.37;7.47;;;;;;;12.63;100.00;97963.56;5088226;28;20236;-76
2023/05/01 08:13:01;;;;;;;10.70;8.20;;;;;;;12.74;100.00;97952.94;5088594;28;20587;-83
2023/05/01 08:15:27;;;;;;;8.40;7.50;;;;;;;12.80;100.00;97952.44;5088772;28;20211;-81
2023/05/01 08:17:54;;;;;;;9.27;7.80;;;;;;;12.88;100.00;97950.88;5088408;28;20246;-80
2023/05/01 08:20:21;;;;;;;9.13;7.33;;;;;;;13.02;99.26;97944.47;5087970;28;20793;-81
2023/05/01 08:22:47;;;;;;;8.83;7.93;;;;;;;13.11;98.64;97938.41;5088395;28;20270;-80
2023/05/01 08:25:15;;;;;;;8.70;7.90;;;;;;;13.16;96.83;97941.53;5088436;28;20206;-80
2023/05/01 08:27:42;;;;;;;8.27;7.40;;;;;;;13.19;96.72;97939.47;5088288;28;20259;-80
2023/05/01 08:30:09;;;;;;;9.07;7.67;;;;;;;13.22;97.62;97939.22;5088175;28;20638;-85
2023/05/01 08:32:35;;;;;;;10.40;7.70;;;;;;;13.31;95.98;97937.59;5073123;28;20880;-85
2023/05/01 08:35:01;;;;;;;8.67;7.67;;;;;;;13.44;94.06;97932.97;5067827;28;20207;-86
2023/05/01 08:37:28;;;;;;;9.27;7.93;;;;;;;13.49;93.73;97936.06;5067995;28;20240;-84
2023/05/01 08:39:55;;;;;;;8.27;7.33;;;;;;;13.54;92.80;97936.50;5067606;28;20204;-84
2023/05/01 08:42:23;;;;;;;8.67;7.53;;;;;;;13.67;92.08;97929.19;5067722;28;20219;-85
2023/05/01 08:44:51;;;;;;;7.43;6.40;;;;;;;13.86;91.24;97930.16;5067363;28;20208;-84
2023/05/01 08:47:18;;;;;;;8.37;6.90;;;;;;;14.07;90.64;97930.13;5080388;22;20610;-83
2023/05/01 08:49:46;;;;;;;7.53;6.80;;;;;;;14.28;88.45;97926.50;5066028;28;20237;-79
2023/05/01 08:52:14;;;;;;;6.33;5.73;;;;;;;14.48;87.29;97922.91;5066672;28;20213;-82
2023/05/01 08:54:43;;;;;;;7.63;6.73;;;;;;;14.67;85.72;97922.16;5066504;28;20271;-84
2023/05/01 08:57:10;;;;;;;6.70;6.07;;;;;;;14.83;84.26;97917.13;5066660;28;20232;-82
2023/05/01 08:59:40;;;;;;;6.90;6.20;;;;;;;14.99;82.71;97912.13;5066067;28;20239;-83
2023/05/01 09:02:08;;;;;;;6.87;6.27;;;;;;;15.06;82.11;97911.44;5054573;28;20213;-83
2023/05/01 09:04:37;;;;;;;6.77;6.13;;;;;;;15.23;81.34;97907.22;5053320;28;20215;-80
2023/05/01 09:07:04;;;;;;;8.47;6.63;;;;;;;15.32;77.81;97898.38;5053389;28;20218;-79
2023/05/01 09:09:31;;;;;;;7.50;6.80;;;;;;;15.30;71.65;97884.38;5052739;28;20329;-77
2023/05/01 09:12:02;;;;;;;6.60;6.00;;;;;;;15.29;73.82;97899.53;5053119;28;20214;-83
2023/05/01 09:14:29;;;;;;;6.90;6.00;;;;;;;15.42;75.20;97908.13;5053216;28;20211;-83
2023/05/01 09:16:57;;;;;;;7.37;6.60;;;;;;;15.52;75.72;97913.44;5053226;28;20206;-81
2023/05/01 09:19:25;;;;;;;7.63;6.50;;;;;;;15.56;74.04;97904.16;5052719;28;20573;-82
2023/05/01 09:21:53;;;;;;;6.97;5.97;;;;;;;15.54;72.36;97899.00;5052928;28;20278;-75
2023/05/01 09:24:19;;;;;;;7.63;6.83;;;;;;;15.62;72.63;97900.91;5052903;28;20207;-75
2023/05/01 09:26:46;;;;;;;7.30;6.60;;;;;;;15.70;72.69;97888.56;5052739;28;20538;-77
2023/05/01 09:29:13;;;;;;;8.07;7.27;;;;;;;15.85;71.54;97891.63;5052427;28;20649;-77
2023/05/01 09:31:40;;;;;;;7.30;6.60;;;;;;;15.93;71.68;97905.06;5052775;28;20295;-77
2023/05/01 09:34:08;;;;;;;8.63;7.40;;;;;;;16.00;69.52;97884.84;5052702;28;20251;-79
2023/05/01 09:36:35;;;;;;;6.83;6.20;;;;;;;15.88;70.19;97891.34;5052607;28;20218;-77
2023/05/01 09:39:03;;;;;;;8.07;7.30;;;;;;;15.95;69.27;97889.78;5052439;28;20385;-76
2023/05/01 09:41:33;;;;;;;7.73;6.23;;;;;;;15.86;69.73;97895.97;5052267;28;20215;-75
2023/05/01 09:44:00;;;;;;;7.37;6.67;;;;;;;15.89;71.49;97903.69;5052325;28;20221;-76
2023/05/01 09:46:27;;;;;;;7.37;6.67;;;;;;;15.90;71.00;97894.69;5052413;28;20241;-76
2023/05/01 09:48:55;;;;;;;8.23;7.10;;;;;;;15.98;68.27;97877.81;5052065;28;20730;-76
2023/05/01 09:51:25;;;;;;;7.37;6.67;;;;;;;16.02;68.24;97880.22;5052075;28;20571;-76
2023/05/01 09:53:52;;;;;;;7.97;7.17;;;;;;;16.09;70.47;97890.97;5052344;28;20266;-76
2023/05/01 09:56:20;;;;;;;7.20;6.53;;;;;;;16.27;68.79;97878.56;5052536;28;20218;-76
2023/05/01 09:58:47;;;;;;;7.87;7.07;;;;;;;16.45;70.43;97887.50;5052208;28;20231;-76
2023/05/01 10:01:13;;;;;;;7.80;7.00;;;;;;;16.59;70.36;97892.31;5051934;28;20582;-75
2023/05/01 10:03:42;;;;;;;7.63;6.93;;;;;;;16.79;70.61;97890.38;5052121;28;20212;-75
2023/05/01 10:06:09;;;;;;;7.97;7.17;;;;;;;16.95;71.10;97901.25;5051142;28;20654;-76
2023/05/01 10:08:47;;;;;;;7.47;6.73;;;;;;;17.03;68.75;97878.16;5049580;28;20235;-76
2023/05/01 10:11:14;;;;;;;8.07;7.13;;;;;;;17.04;68.85;97893.16;5049015;28;20236;-75
2023/05/01 10:13:41;;;;;;;7.20;6.50;;;;;;;17.06;70.05;97893.84;5048253;28;20298;-76
2023/05/01 10:16:28;;;;;;;9.53;7.33;;;;;;;17.19;69.99;97894.31;5051820;28;20443;-76
2023/05/01 10:18:56;;;;;;;7.57;6.87;;;;;;;17.24;69.84;97892.03;5051740;28;20236;-76
2023/05/01 10:21:22;;;;;;;7.17;6.47;;;;;;;17.31;70.70;97909.09;5051684;28;20579;-77
2023/05/01 10:23:51;;;;;;;7.53;6.67;;;;;;;17.39;69.73;97895.88;5051861;28;20208;-76
2023/05/01 10:26:19;;;;;;;7.27;6.67;;;;;;;17.35;68.14;97883.78;5051804;28;20281;-75
2023/05/01 10:28:47;;;;;;;7.37;6.67;;;;;;;17.46;66.45;97869.38;5051732;28;20231;-76
2023/05/01 10:31:14;;;;;;;7.60;6.80;;;;;;;17.41;60.25;97829.75;5051120;28;20647;-76
2023/05/01 10:33:42;;;;;;;6.00;5.47;;;;;;;17.17;57.21;97805.50;5051582;28;20295;-76
2023/05/01 10:36:14;;;;;;;6.30;5.20;;;;;;;17.02;57.51;97808.88;5051534;28;20223;-76
2023/05/01 10:38:44;;;;;;;5.80;5.30;;;;;;;16.90;58.71;97832.31;5051907;28;20228;-76
2023/05/01 10:41:12;;;;;;;5.40;4.90;;;;;;;17.03;59.06;97829.22;5051511;28;20201;-76
2023/05/01 10:43:39;;;;;;;5.33;4.83;;;;;;;17.08;58.96;97834.97;5051697;28;20215;-75
2023/05/01 10:46:26;;;;;;;6.47;5.67;;;;;;;17.07;57.91;97814.59;5051986;28;20289;-76
2023/05/01 10:48:57;;;;;;;6.87;6.27;;;;;;;16.91;58.52;97825.13;5051732;28;20402;-76
2023/05/01 10:51:28;;;;;;;6.07;5.47;;;;;;;16.96;58.29;97834.31;5051316;28;20243;-76
2023/05/01 10:54:23;;;;;;;7.47;6.57;;;;;;;17.05;60.91;97849.44;5051608;28;20208;-76
2023/05/01 10:56:51;;;;;;;7.53;6.83;;;;;;;17.13;64.06;97873.56;5051368;28;20216;-76
2023/05/01 10:59:18;;;;;;;8.00;7.30;;;;;;;17.23;63.57;97868.97;5049770;28;20670;-75
2023/05/01 11:01:46;;;;;;;7.73;7.03;;;;;;;17.24;63.85;97869.84;5049646;28;20220;-75
2023/05/01 11:04:47;;;;;;;8.43;6.67;;;;;;;17.33;61.98;97848.38;5050356;28;20204;-75
2023/05/01 11:07:16;;;;;;;8.03;7.30;;;;;;;17.36;62.32;97855.22;5048027;28;20277;-74
2023/05/01 11:09:45;;;;;;;6.80;6.10;;;;;;;17.36;62.50;97850.72;5047467;28;20208;-73
2023/05/01 11:12:14;;;;;;;7.33;6.63;;;;;;;17.36;61.08;97841.84;5047816;28;20211;-73
2023/05/01 11:15:04;;;;;;;7.60;6.60;;;;;;;17.39;58.09;97817.56;5049025;28;20208;-72
2023/05/01 11:17:52;;;;;;;6.70;6.10;;;;;;;17.33;57.33;97805.63;5050551;28;20250;-73
2023/05/01 11:20:47;;;;;;;8.00;6.83;;;;;;;17.22;58.07;97813.88;5044496;28;20200;-72
2023/05/01 11:23:17;;;;;;;6.63;6.03;;;;;;;17.22;57.42;97803.19;5050121;28;20728;-73
2023/05/01 11:25:52;;;;;;;6.70;6.10;;;;;;;17.20;57.78;97813.19;5050155;28;20212;-74
2023/05/01 11:28:24;;;;;;;7.50;6.30;;;;;;;17.11;57.06;97799.91;5050362;28;20235;-77
2023/05/01 11:30:50;;;;;;;7.03;6.03;;;;;;;17.09;57.56;97802.78;5049837;28;20234;-76
2023/05/01 11:33:24;;;;;;;7.33;6.40;;;;;;;17.11;57.59;97805.25;5050114;28;20207;-76
2023/05/01 11:36:01;;;;;;;6.90;6.30;;;;;;;17.33;58.03;97810.97;5050134;28;20242;-76
2023/05/01 11:38:28;;;;;;;7.53;6.80;;;;;;;17.39;57.91;97810.38;5049974;28;20258;-76